Strona główna
METAR-TAF:

METAR-TAF

Lotnisko :

Luxeuil-les-Bains, Francja

Szerokość geograficzna: 47-47N, Długość geograficzna: 006-21E, wysokość: 278 m

Aktualna obserwacja pogody

Raport powstał 21 minut temu, godzina 09:00 UTC
Wiatr 1 kt z kierunków zmiennych
Temperatura 24°C
Wilgotność 69%
Ciśnienie 1023 hPa
Widzialność 10 km lub więcej
Mało chmury na wysokości 1800 ft
Przerywane chmury na wysokości 4300 ft
Przerywane chmury na wysokości 4900 ft

METAR: LFSX 210900Z AUTO VRB01KT 9999 FEW018 BKN043 BKN049 24/18 Q1023

czas: 11:21 (09:21 UTC)

Prognoza

Raport powstał 1 godzina i 21 minut temu, godzina 08:00 UTC
Prognoza ważna od 21 godzina 09 UTC do 22 godzina 09 UTC
Wiatr 5 kt od południowo-południowy wschód
Widzialność 10 km lub więcej
Rozproszone chmury na wysokości 1000 ft
Przerywane chmury na wysokości 4500 ft

TAF: LFSX 210800Z 2109/2209 15005KT 9999 SCT010 BKN045

Obserwacja i prognoza pogody dla ponad 4000 lotnisk (raport METAR i TAF).

Dostępne stacje oznaczono żółtymi i czerwonymi punktami na mapie.

Najedź kursorem aby zobaczyć nazwę stacji.

Kliknij aby zobaczyć obserwacje i prognozy pogody.

Aby zmienić mapę: kliknij na zielony przycisk z czarnym krzyżykiem, aby powiększyć; na zielony przycisk z myślnikiem, aby pomniejszyć; na zielone strzałki, aby przejść do map sąsiednich.


METAR-TAF: